createdAt,value
2023-04-10T00:00:19.860Z,3.878479
2023-04-10T00:03:45.211Z,3.838196
2023-04-10T00:07:10.324Z,3.828125
2023-04-10T00:10:35.514Z,3.797913
2023-04-10T00:14:00.714Z,3.858337
2023-04-10T00:17:25.956Z,3.928833
2023-04-10T00:20:51.146Z,3.938904
2023-04-10T00:24:16.402Z,3.938904
2023-04-10T00:27:41.617Z,3.979187
2023-04-10T00:31:06.834Z,3.959045
2023-04-10T00:34:32.055Z,3.959045
2023-04-10T00:37:57.257Z,3.928833
2023-04-10T00:41:22.465Z,3.959045
2023-04-10T00:44:47.644Z,3.969116
2023-04-10T00:48:12.876Z,3.979187
2023-04-10T00:51:38.040Z,3.979187
2023-04-10T00:55:03.240Z,3.938904
2023-04-10T00:58:28.510Z,3.908691
2023-04-10T01:01:53.871Z,3.838196
2023-04-10T01:05:18.916Z,3.697205
2023-04-10T01:08:44.130Z,3.606567
2023-04-10T01:12:09.329Z,3.566284
2023-04-10T01:15:34.586Z,3.566284
2023-04-10T01:18:59.754Z,3.566284
2023-04-10T01:22:24.939Z,3.606567
2023-04-10T01:25:50.144Z,3.596497
2023-04-10T01:29:15.379Z,3.495789
2023-04-10T01:32:40.640Z,3.495789
2023-04-10T01:36:05.790Z,3.566284
2023-04-10T01:39:31.014Z,3.687134
2023-04-10T01:42:56.246Z,3.777771
2023-04-10T01:46:21.472Z,3.928833
2023-04-10T01:49:46.715Z,4.110107
2023-04-10T01:53:11.914Z,4.160461
2023-04-10T01:56:37.177Z,4.230957
2023-04-10T02:00:02.387Z,4.230957
2023-04-10T02:03:27.872Z,4.321594
2023-04-10T02:06:52.848Z,4.301453
2023-04-10T02:10:18.054Z,4.331665
2023-04-10T02:13:43.264Z,4.361877
2023-04-10T02:17:10.528Z,4.442444
2023-04-10T02:20:35.731Z,4.472656
2023-04-10T02:24:01.000Z,4.512939
2023-04-10T02:27:26.212Z,4.543152
2023-04-10T02:30:51.519Z,4.633789
2023-04-10T02:34:16.636Z,4.724426
2023-04-10T02:37:41.850Z,4.704285
2023-04-10T02:41:07.096Z,4.633789
2023-04-10T02:44:32.271Z,4.664001
2023-04-10T02:47:57.504Z,4.835205
2023-04-10T02:51:22.683Z,4.956055
2023-04-10T02:54:47.888Z,4.996338
2023-04-10T02:58:14.940Z,4.875488
2023-04-10T03:01:38.383Z,4.815063
2023-04-10T03:05:03.561Z,4.784851
2023-04-10T03:08:28.750Z,4.835205
2023-04-10T03:11:54.004Z,4.77478
2023-04-10T03:15:19.255Z,4.623718
2023-04-10T03:18:44.431Z,4.452515
2023-04-10T03:22:09.615Z,4.120178
2023-04-10T03:25:34.815Z,3.959045
2023-04-10T03:29:00.009Z,3.777771
2023-04-10T03:32:25.246Z,3.687134
2023-04-10T03:35:50.458Z,3.566284
2023-04-10T03:39:15.644Z,3.465576
2023-04-10T03:42:40.867Z,3.364868
2023-04-10T03:46:06.095Z,3.324585
2023-04-10T03:49:31.305Z,3.203735
2023-04-10T03:52:56.488Z,3.173523
2023-04-10T03:56:21.709Z,3.13324
2023-04-10T03:59:46.918Z,3.052673
2023-04-10T04:03:12.570Z,2.951965
2023-04-10T04:06:37.407Z,2.962036
2023-04-10T04:10:02.589Z,2.921753
2023-04-10T04:13:27.798Z,2.921753
2023-04-10T04:16:53.039Z,2.951965
2023-04-10T04:20:18.202Z,3.183594
2023-04-10T04:23:43.412Z,3.314514
2023-04-10T04:27:08.615Z,3.445435
2023-04-10T04:30:33.851Z,3.566284
2023-04-10T04:33:59.113Z,3.596497
2023-04-10T04:37:24.349Z,3.687134
2023-04-10T04:40:49.593Z,3.717346
2023-04-10T04:44:14.772Z,3.727417
2023-04-10T04:47:40.039Z,3.838196
2023-04-10T04:51:05.227Z,3.858337
2023-04-10T04:54:30.514Z,3.878479
2023-04-10T04:57:55.747Z,3.797913
2023-04-10T05:01:20.969Z,3.747559
2023-04-10T05:04:46.151Z,3.677063
2023-04-10T05:08:11.365Z,3.596497
2023-04-10T05:11:36.589Z,3.536072
2023-04-10T05:15:01.836Z,3.445435
2023-04-10T05:18:27.054Z,3.445435
2023-04-10T05:21:52.265Z,3.465576
2023-04-10T05:25:17.576Z,3.566284
2023-04-10T05:28:42.895Z,3.606567
2023-04-10T05:32:08.285Z,3.606567
2023-04-10T05:35:33.491Z,3.646851
2023-04-10T05:38:58.807Z,3.697205
2023-04-10T05:42:24.422Z,3.828125
2023-04-10T05:45:49.639Z,3.938904
2023-04-10T05:49:14.915Z,4.079895
2023-04-10T05:52:40.478Z,4.220886
2023-04-10T05:56:05.625Z,4.482727
2023-04-10T05:59:30.866Z,4.694214
2023-04-10T06:02:56.139Z,4.915771
2023-04-10T06:06:21.540Z,5.1474
2023-04-10T06:09:46.962Z,5.449524
2023-04-10T06:13:12.205Z,5.711365
2023-04-10T06:16:37.505Z,5.973206
2023-04-10T06:20:03.043Z,6.295471
2023-04-10T06:23:28.490Z,6.506958
2023-04-10T06:26:53.823Z,6.738586
2023-04-10T06:30:19.220Z,6.950073
2023-04-10T06:33:44.484Z,7.091064
2023-04-10T06:37:09.758Z,7.272339
2023-04-10T06:40:35.100Z,7.393188
2023-04-10T06:44:01.832Z,7.423401
2023-04-10T06:47:25.619Z,7.403259
2023-04-10T06:50:50.877Z,7.322693
2023-04-10T06:54:16.309Z,7.252197
2023-04-10T06:57:41.587Z,7.28241
2023-04-10T07:01:06.815Z,7.272339
2023-04-10T07:04:33.295Z,7.342834
2023-04-10T07:07:58.481Z,7.433472
2023-04-10T07:11:24.572Z,7.524109
2023-04-10T07:14:49.903Z,7.705383
2023-04-10T07:18:15.370Z,7.886658
2023-04-10T07:21:40.600Z,8.098145
2023-04-10T07:25:05.845Z,8.28949
2023-04-10T07:28:31.089Z,8.480835
2023-04-10T07:31:56.839Z,8.631897
2023-04-10T07:35:22.372Z,8.79303
2023-04-10T07:38:47.584Z,8.964233
2023-04-10T07:42:12.832Z,9.135437
2023-04-10T07:45:38.110Z,9.306641
2023-04-10T07:49:03.352Z,9.397278
2023-04-10T07:52:28.540Z,9.568481
2023-04-10T07:55:53.750Z,9.649048
2023-04-10T07:59:18.859Z,9.779968
2023-04-10T08:02:44.090Z,9.779968
2023-04-10T08:06:09.196Z,9.890747
2023-04-10T08:09:34.321Z,9.830322
2023-04-10T08:12:59.532Z,9.890747
2023-04-10T08:16:24.693Z,9.961243
2023-04-10T08:19:49.884Z,10.05188
2023-04-10T08:23:20.174Z,9.941101
2023-04-10T08:26:40.309Z,9.971313
2023-04-10T08:30:05.532Z,9.991455
2023-04-10T08:33:30.734Z,10.072021
2023-04-10T08:36:55.924Z,10.122375
2023-04-10T08:40:21.217Z,10.092163
2023-04-10T08:43:46.602Z,10.253296
2023-04-10T08:47:11.627Z,10.273438
2023-04-10T08:50:36.847Z,10.323792
2023-04-10T08:54:02.065Z,10.273438
2023-04-10T08:57:27.312Z,10.343933
2023-04-10T09:00:52.479Z,10.625916
2023-04-10T09:04:17.794Z,10.80719
2023-04-10T09:07:42.985Z,10.998535
2023-04-10T09:11:08.201Z,11.069031
2023-04-10T09:14:33.483Z,11.139526
2023-04-10T09:17:58.694Z,11.250305
2023-04-10T09:21:23.808Z,11.471863
2023-04-10T09:24:49.039Z,11.492004
2023-04-10T09:28:14.275Z,11.421509
2023-04-10T09:31:39.535Z,11.622925
2023-04-10T09:35:04.701Z,11.643066
2023-04-10T09:38:29.931Z,11.703491
2023-04-10T09:41:55.143Z,11.864624
2023-04-10T09:45:20.356Z,11.904907
2023-04-10T09:48:45.582Z,11.914978
2023-04-10T09:52:10.875Z,12.116394
2023-04-10T09:55:36.194Z,12.237244
2023-04-10T09:59:01.404Z,12.368164
2023-04-10T10:02:26.655Z,12.388306
2023-04-10T10:05:51.842Z,12.489014
2023-04-10T10:09:17.069Z,12.519226
2023-04-10T10:12:42.427Z,12.499084
2023-04-10T10:16:07.716Z,12.650146
2023-04-10T10:19:32.855Z,12.589722
2023-04-10T10:22:58.087Z,12.529297
2023-04-10T10:26:23.311Z,12.408447
2023-04-10T10:29:48.506Z,12.640076
2023-04-10T10:33:13.822Z,12.791138
2023-04-10T10:36:39.095Z,12.791138
2023-04-10T10:40:04.612Z,12.831421
2023-04-10T10:43:29.824Z,12.770996
2023-04-10T10:46:57.339Z,12.750854
2023-04-10T10:50:23.451Z,12.851562
2023-04-10T10:53:47.894Z,12.851562
2023-04-10T10:57:13.338Z,12.952271
2023-04-10T11:00:38.676Z,13.012695
2023-04-10T11:04:04.082Z,13.032837
2023-04-10T11:07:29.514Z,12.922058
2023-04-10T11:10:54.922Z,13.042908
2023-04-10T11:14:20.381Z,13.083191
2023-04-10T11:17:45.794Z,13.113403
2023-04-10T11:21:11.234Z,13.153687
2023-04-10T11:24:36.467Z,13.294678
2023-04-10T11:28:03.473Z,13.224182
2023-04-10T11:31:28.728Z,13.355103
2023-04-10T11:34:53.886Z,13.284607
2023-04-10T11:38:19.219Z,13.143616
2023-04-10T11:41:44.424Z,13.032837
2023-04-10T11:45:09.654Z,12.952271
2023-04-10T11:48:34.910Z,13.032837
2023-04-10T11:52:00.136Z,13.002625
2023-04-10T11:55:25.366Z,12.861633
2023-04-10T11:58:50.608Z,12.972412
2023-04-10T12:02:16.039Z,13.07312
2023-04-10T12:05:41.098Z,13.042908
2023-04-10T12:09:06.298Z,13.032837
2023-04-10T12:12:31.524Z,13.012695
2023-04-10T12:15:56.811Z,12.922058
2023-04-10T12:19:22.189Z,13.083191
2023-04-10T12:22:47.355Z,13.32489
2023-04-10T12:26:13.157Z,13.435669
2023-04-10T12:29:38.379Z,13.475952
2023-04-10T12:33:03.904Z,13.586731
2023-04-10T12:36:29.826Z,13.566589
2023-04-10T12:39:55.109Z,13.637085
2023-04-10T12:43:20.322Z,13.566589
2023-04-10T12:46:45.581Z,13.566589
2023-04-10T12:50:13.963Z,13.475952
2023-04-10T12:53:39.262Z,13.475952
2023-04-10T12:57:04.560Z,13.69751
2023-04-10T13:00:29.780Z,13.808289
2023-04-10T13:03:55.058Z,13.878784
2023-04-10T13:07:20.231Z,13.94928
2023-04-10T13:10:45.556Z,13.919067
2023-04-10T13:14:10.835Z,13.778076
2023-04-10T13:17:36.146Z,13.768005
2023-04-10T13:21:01.269Z,13.848572
2023-04-10T13:24:26.520Z,13.919067
2023-04-10T13:27:51.842Z,14.019775
2023-04-10T13:31:17.160Z,13.989563
2023-04-10T13:34:42.332Z,13.868713
2023-04-10T13:38:07.566Z,13.868713
2023-04-10T13:41:32.860Z,13.838501
2023-04-10T13:44:58.199Z,13.838501
2023-04-10T13:48:29.900Z,13.94928
2023-04-10T13:51:48.701Z,13.989563
2023-04-10T13:55:13.959Z,14.029846
2023-04-10T13:58:39.215Z,14.060059
2023-04-10T14:02:04.533Z,14.090271
2023-04-10T14:05:29.749Z,14.039917
2023-04-10T14:08:55.092Z,13.868713
2023-04-10T14:12:20.258Z,13.778076
2023-04-10T14:15:45.546Z,13.808289
2023-04-10T14:19:10.817Z,13.878784
2023-04-10T14:22:36.091Z,13.919067
2023-04-10T14:26:02.181Z,13.878784
2023-04-10T14:29:36.235Z,13.707581
2023-04-10T14:32:52.826Z,13.778076
2023-04-10T14:36:18.843Z,13.818359
2023-04-10T14:39:44.095Z,13.616943
2023-04-10T14:43:09.350Z,13.486023
2023-04-10T14:46:34.587Z,13.44574
2023-04-10T14:49:59.876Z,13.415527
2023-04-10T14:53:25.149Z,13.455811
2023-04-10T14:56:50.433Z,13.486023
2023-04-10T15:00:16.376Z,13.44574
2023-04-10T15:03:41.650Z,13.486023
2023-04-10T15:40:03.539Z,12.670288
2023-04-10T15:43:28.760Z,12.680359
2023-04-10T15:46:54.015Z,12.770996
2023-04-10T15:50:19.251Z,12.670288
2023-04-10T15:53:44.475Z,12.640076
2023-04-10T15:57:09.743Z,12.619934
2023-04-10T16:00:34.951Z,12.670288
2023-04-10T16:04:00.538Z,12.670288
2023-04-10T16:07:25.581Z,12.680359
2023-04-10T16:10:50.948Z,12.670288
2023-04-10T16:14:16.283Z,12.680359
2023-04-10T16:17:41.712Z,12.650146
2023-04-10T16:21:06.961Z,12.619934
2023-04-10T16:24:32.230Z,12.56958
2023-04-10T16:27:57.636Z,12.56958
2023-04-10T16:31:22.903Z,12.619934
2023-04-10T16:34:48.133Z,12.599792
2023-04-10T16:38:13.427Z,12.499084
2023-04-10T16:41:38.685Z,12.348022
2023-04-10T16:45:03.988Z,12.227173
2023-04-10T16:48:29.334Z,12.136536
2023-04-10T16:51:54.628Z,12.086182
2023-04-10T16:55:19.916Z,12.06604
2023-04-10T16:58:45.153Z,12.086182
2023-04-10T17:02:10.538Z,12.045898
2023-04-10T17:05:35.854Z,12.035828
2023-04-10T17:09:01.225Z,11.975403
2023-04-10T17:12:26.539Z,11.955261
2023-04-10T17:15:51.775Z,11.93512
2023-04-10T17:19:17.095Z,11.854553
2023-04-10T17:22:42.427Z,11.854553
2023-04-10T17:26:07.726Z,11.854553
2023-04-10T17:29:33.036Z,11.753845
2023-04-10T17:32:58.304Z,11.69342
2023-04-10T17:36:23.574Z,11.703491
2023-04-10T17:39:48.856Z,11.653137
2023-04-10T17:43:14.179Z,11.622925
2023-04-10T17:46:39.438Z,11.572571
2023-04-10T17:50:04.709Z,11.522217
2023-04-10T17:53:30.011Z,11.43158
2023-04-10T17:56:55.390Z,11.351013
2023-04-10T18:00:20.859Z,11.320801
2023-04-10T18:03:46.059Z,11.210022
2023-04-10T18:07:11.215Z,11.169739
2023-04-10T18:10:36.568Z,11.089172
2023-04-10T18:14:01.901Z,11.089172
2023-04-10T18:17:27.253Z,11.038818
2023-04-10T18:20:52.521Z,10.958252
2023-04-10T18:24:18.393Z,10.857544
2023-04-10T18:27:48.017Z,10.837402
2023-04-10T18:31:08.928Z,10.837402
2023-04-10T18:34:34.227Z,10.80719
2023-04-10T18:37:59.499Z,10.726624
2023-04-10T18:41:52.388Z,10.605774
2023-04-10T18:45:17.631Z,10.595703
2023-04-10T18:48:42.971Z,10.515137
2023-04-10T18:52:08.202Z,10.545349
2023-04-10T18:55:33.542Z,10.484924
2023-04-10T18:58:58.832Z,10.444641
2023-04-10T19:02:25.271Z,10.404358
2023-04-10T19:05:50.394Z,10.333862
2023-04-10T19:09:15.713Z,10.293579
2023-04-10T19:12:40.975Z,10.253296
2023-04-10T19:16:06.246Z,10.253296
2023-04-10T19:19:31.435Z,10.253296
2023-04-10T19:22:56.729Z,10.142517
2023-04-10T19:26:21.960Z,10.041809
2023-04-10T19:29:47.255Z,10.021667
2023-04-10T19:33:12.558Z,9.961243
2023-04-10T19:36:37.813Z,9.961243
2023-04-10T19:40:03.080Z,9.93103
2023-04-10T19:43:28.333Z,9.971313
2023-04-10T19:46:53.599Z,9.991455
2023-04-10T19:50:18.833Z,9.961243
2023-04-10T19:53:44.094Z,9.93103
2023-04-10T19:57:09.331Z,9.860535
2023-04-10T20:00:34.562Z,9.830322
2023-04-10T20:03:59.860Z,9.810181
2023-04-10T20:07:25.057Z,9.870605
2023-04-10T20:10:50.287Z,9.870605
2023-04-10T20:14:15.518Z,9.890747
2023-04-10T20:17:40.735Z,9.860535
2023-04-10T20:21:05.882Z,9.860535
2023-04-10T20:24:31.113Z,9.810181
2023-04-10T20:27:56.347Z,9.749756
2023-04-10T20:31:21.673Z,9.659119
2023-04-10T20:34:46.818Z,9.67926
2023-04-10T20:38:11.987Z,9.659119
2023-04-10T20:41:37.191Z,9.638977
2023-04-10T20:45:02.431Z,9.538269
2023-04-10T20:48:27.673Z,9.528198
2023-04-10T20:51:52.872Z,9.497986
2023-04-10T20:55:18.115Z,9.42749
2023-04-10T20:58:43.328Z,9.346924
2023-04-10T21:02:08.587Z,9.356995
2023-04-10T21:05:33.744Z,9.306641
2023-04-10T21:08:58.904Z,9.346924
2023-04-10T21:12:24.105Z,9.346924
2023-04-10T21:15:49.316Z,9.356995
2023-04-10T21:19:14.543Z,9.346924
2023-04-10T21:22:39.777Z,9.346924
2023-04-10T21:26:04.973Z,9.316711
2023-04-10T21:29:30.198Z,9.256287
2023-04-10T21:32:55.402Z,9.195862
2023-04-10T21:36:20.575Z,9.195862
2023-04-10T21:39:45.773Z,9.17572
2023-04-10T21:43:10.928Z,9.205933
2023-04-10T21:46:36.162Z,9.256287
2023-04-10T21:50:01.393Z,9.286499
2023-04-10T21:53:26.568Z,9.276428
2023-04-10T21:56:51.800Z,9.205933
2023-04-10T22:00:16.996Z,9.205933
2023-04-10T22:03:42.229Z,9.195862
2023-04-10T22:07:07.407Z,9.17572
2023-04-10T22:10:32.577Z,9.256287
2023-04-10T22:14:00.161Z,9.276428
2023-04-10T22:17:22.985Z,9.276428
2023-04-10T22:20:48.147Z,9.377136
2023-04-10T22:24:13.337Z,9.42749
2023-04-10T22:27:38.536Z,9.497986
2023-04-10T22:31:03.761Z,9.508057
2023-04-10T22:34:28.945Z,9.508057
2023-04-10T22:37:54.152Z,9.42749
2023-04-10T22:41:19.346Z,9.346924
2023-04-10T22:44:44.573Z,9.326782
2023-04-10T22:48:09.817Z,9.346924
2023-04-10T22:51:35.000Z,9.306641
2023-04-10T22:55:00.196Z,9.256287
2023-04-10T22:58:25.386Z,9.276428
2023-04-10T23:01:50.632Z,9.286499
2023-04-10T23:05:15.787Z,9.256287
2023-04-10T23:08:40.969Z,9.195862
2023-04-10T23:12:06.189Z,9.165649
2023-04-10T23:15:31.387Z,9.165649
2023-04-10T23:18:56.977Z,9.145508
2023-04-10T23:22:21.876Z,9.095154
2023-04-10T23:25:47.048Z,9.054871
2023-04-10T23:29:12.266Z,9.075012
2023-04-10T23:32:37.530Z,9.095154
2023-04-10T23:36:02.739Z,9.145508
2023-04-10T23:39:27.858Z,9.195862
2023-04-10T23:42:53.039Z,9.17572
2023-04-10T23:46:18.260Z,9.205933
2023-04-10T23:49:43.454Z,9.165649
2023-04-10T23:53:08.708Z,9.17572
2023-04-10T23:56:33.866Z,9.195862
2023-04-10T23:59:59.013Z,9.256287
